sensor_id;sensor_type;location;lat;lon;timestamp;pressure;altitude;pressure_sealevel;temperature;humidity
27643;BME280;15053;48.618;10.024;2023-04-28T00:02:13;94197.28;;;10.86;68.34
27643;BME280;15053;48.618;10.024;2023-04-28T00:04:39;94194.22;;;10.84;68.42
27643;BME280;15053;48.618;10.024;2023-04-28T00:07:06;94193.44;;;10.84;68.71
27643;BME280;15053;48.618;10.024;2023-04-28T00:09:33;94183.00;;;10.84;68.82
27643;BME280;15053;48.618;10.024;2023-04-28T00:11:59;94173.16;;;10.81;68.82
27643;BME280;15053;48.618;10.024;2023-04-28T00:14:26;94177.50;;;10.85;69.05
27643;BME280;15053;48.618;10.024;2023-04-28T00:16:53;94170.47;;;10.86;68.71
27643;BME280;15053;48.618;10.024;2023-04-28T00:19:22;94159.47;;;10.89;69.14
27643;BME280;15053;48.618;10.024;2023-04-28T00:21:48;94162.53;;;10.91;69.23
27643;BME280;15053;48.618;10.024;2023-04-28T00:24:15;94152.63;;;10.93;69.31
27643;BME280;15053;48.618;10.024;2023-04-28T00:26:41;94152.50;;;10.98;69.56
27643;BME280;15053;48.618;10.024;2023-04-28T00:29:08;94142.56;;;11.00;69.56
27643;BME280;15053;48.618;10.024;2023-04-28T00:31:34;94141.50;;;11.01;70.03
27643;BME280;15053;48.618;10.024;2023-04-28T00:34:01;94137.25;;;11.05;70.04
27643;BME280;15053;48.618;10.024;2023-04-28T00:36:27;94135.63;;;11.09;69.88
27643;BME280;15053;48.618;10.024;2023-04-28T00:38:58;94147.75;;;11.13;70.06
27643;BME280;15053;48.618;10.024;2023-04-28T00:41:24;94141.97;;;11.16;69.93
27643;BME280;15053;48.618;10.024;2023-04-28T00:43:51;94142.75;;;11.17;70.00
27643;BME280;15053;48.618;10.024;2023-04-28T00:46:26;94141.38;;;11.19;70.20
27643;BME280;15053;48.618;10.024;2023-04-28T00:48:54;94132.19;;;11.22;70.07
27643;BME280;15053;48.618;10.024;2023-04-28T00:51:21;94126.22;;;11.21;69.99
27643;BME280;15053;48.618;10.024;2023-04-28T00:53:49;94133.19;;;11.26;70.44
27643;BME280;15053;48.618;10.024;2023-04-28T00:56:16;94126.41;;;11.25;69.98
27643;BME280;15053;48.618;10.024;2023-04-28T00:58:42;94131.63;;;11.25;69.93
27643;BME280;15053;48.618;10.024;2023-04-28T01:01:09;94133.91;;;11.26;69.85
27643;BME280;15053;48.618;10.024;2023-04-28T01:03:38;94133.34;;;11.30;69.94
27643;BME280;15053;48.618;10.024;2023-04-28T01:06:07;94132.56;;;11.29;70.04
27643;BME280;15053;48.618;10.024;2023-04-28T01:08:36;94124.84;;;11.24;70.29
27643;BME280;15053;48.618;10.024;2023-04-28T01:11:05;94130.25;;;11.27;70.71
27643;BME280;15053;48.618;10.024;2023-04-28T01:13:50;94124.28;;;11.27;70.76
27643;BME280;15053;48.618;10.024;2023-04-28T01:16:18;94121.38;;;11.29;70.57
27643;BME280;15053;48.618;10.024;2023-04-28T01:18:46;94115.97;;;11.25;70.33
27643;BME280;15053;48.618;10.024;2023-04-28T01:21:13;94110.19;;;11.28;70.51
27643;BME280;15053;48.618;10.024;2023-04-28T01:23:45;94105.75;;;11.29;70.65
27643;BME280;15053;48.618;10.024;2023-04-28T01:26:11;94099.44;;;11.30;70.88
27643;BME280;15053;48.618;10.024;2023-04-28T01:28:38;94090.84;;;11.29;71.07
27643;BME280;15053;48.618;10.024;2023-04-28T01:31:04;94083.53;;;11.31;70.98
27643;BME280;15053;48.618;10.024;2023-04-28T01:33:31;94081.69;;;11.32;70.52
27643;BME280;15053;48.618;10.024;2023-04-28T01:35:57;94087.66;;;11.32;70.63
27643;BME280;15053;48.618;10.024;2023-04-28T01:38:24;94089.78;;;11.30;70.49
27643;BME280;15053;48.618;10.024;2023-04-28T01:40:53;94086.41;;;11.30;70.37
27643;BME280;15053;48.618;10.024;2023-04-28T01:43:20;94089.03;;;11.30;70.17
27643;BME280;15053;48.618;10.024;2023-04-28T01:45:46;94090.84;;;11.29;70.25
27643;BME280;15053;48.618;10.024;2023-04-28T01:48:13;94083.66;;;11.26;70.19
27643;BME280;15053;48.618;10.024;2023-04-28T01:50:39;94098.97;;;11.27;70.56
27643;BME280;15053;48.618;10.024;2023-04-28T01:53:06;94093.09;;;11.22;70.46
27643;BME280;15053;48.618;10.024;2023-04-28T01:55:32;94089.53;;;11.18;70.62
27643;BME280;15053;48.618;10.024;2023-04-28T01:57:59;94094.47;;;11.19;70.57
27643;BME280;15053;48.618;10.024;2023-04-28T02:00:28;94091.38;;;11.17;70.69
27643;BME280;15053;48.618;10.024;2023-04-28T02:02:55;94092.25;;;11.13;70.82
27643;BME280;15053;48.618;10.024;2023-04-28T02:05:22;94092.84;;;11.10;70.93
27643;BME280;15053;48.618;10.024;2023-04-28T02:07:50;94096.78;;;11.07;70.91
27643;BME280;15053;48.618;10.024;2023-04-28T02:10:17;94099.59;;;11.11;70.99
27643;BME280;15053;48.618;10.024;2023-04-28T02:12:44;94087.63;;;11.10;70.81
27643;BME280;15053;48.618;10.024;2023-04-28T02:15:11;94092.56;;;11.11;71.21
27643;BME280;15053;48.618;10.024;2023-04-28T02:17:37;94090.22;;;11.10;70.95
27643;BME280;15053;48.618;10.024;2023-04-28T02:20:04;94091.69;;;11.02;71.08
27643;BME280;15053;48.618;10.024;2023-04-28T02:22:31;94095.06;;;11.03;71.03
27643;BME280;15053;48.618;10.024;2023-04-28T02:24:58;94095.66;;;11.00;71.65
27643;BME280;15053;48.618;10.024;2023-04-28T02:27:24;94082.75;;;10.95;71.81
27643;BME280;15053;48.618;10.024;2023-04-28T02:29:51;94096.13;;;11.02;71.93
27643;BME280;15053;48.618;10.024;2023-04-28T02:32:17;94084.47;;;10.99;71.36
27643;BME280;15053;48.618;10.024;2023-04-28T02:34:44;94085.34;;;10.95;72.15
27643;BME280;15053;48.618;10.024;2023-04-28T02:37:11;94086.72;;;10.92;72.55
27643;BME280;15053;48.618;10.024;2023-04-28T02:39:37;94081.50;;;10.92;72.87
27643;BME280;15053;48.618;10.024;2023-04-28T02:42:05;94085.47;;;10.90;73.41
27643;BME280;15053;48.618;10.024;2023-04-28T02:44:31;94066.84;;;10.83;73.92
27643;BME280;15053;48.618;10.024;2023-04-28T02:46:58;94058.34;;;10.77;74.63
27643;BME280;15053;48.618;10.024;2023-04-28T02:49:25;94061.84;;;10.73;74.73
27643;BME280;15053;48.618;10.024;2023-04-28T02:51:51;94054.13;;;10.68;75.40
27643;BME280;15053;48.618;10.024;2023-04-28T02:54:18;94057.91;;;10.61;75.47
27643;BME280;15053;48.618;10.024;2023-04-28T02:56:54;94057.44;;;10.59;75.90
27643;BME280;15053;48.618;10.024;2023-04-28T02:59:22;94062.63;;;10.59;75.98
27643;BME280;15053;48.618;10.024;2023-04-28T03:01:50;94051.25;;;10.55;75.83
27643;BME280;15053;48.618;10.024;2023-04-28T03:04:19;94053.19;;;10.50;76.10
27643;BME280;15053;48.618;10.024;2023-04-28T03:06:48;94051.44;;;10.45;76.46
27643;BME280;15053;48.618;10.024;2023-04-28T03:09:14;94054.16;;;10.40;76.82
27643;BME280;15053;48.618;10.024;2023-04-28T03:11:41;94051.06;;;10.38;76.85
27643;BME280;15053;48.618;10.024;2023-04-28T03:14:08;94044.31;;;10.37;76.87
27643;BME280;15053;48.618;10.024;2023-04-28T03:16:34;94035.25;;;10.35;77.30
27643;BME280;15053;48.618;10.024;2023-04-28T03:19:01;94042.50;;;10.38;77.38
27643;BME280;15053;48.618;10.024;2023-04-28T03:21:27;94041.81;;;10.32;77.53
27643;BME280;15053;48.618;10.024;2023-04-28T03:23:54;94049.63;;;10.32;77.73
27643;BME280;15053;48.618;10.024;2023-04-28T03:26:21;94059.06;;;10.28;78.14
27643;BME280;15053;48.618;10.024;2023-04-28T03:28:50;94048.66;;;10.28;78.16
27643;BME280;15053;48.618;10.024;2023-04-28T03:31:17;94042.09;;;10.31;78.20
27643;BME280;15053;48.618;10.024;2023-04-28T03:33:43;94036.13;;;10.30;78.55
27643;BME280;15053;48.618;10.024;2023-04-28T03:36:14;94043.44;;;10.28;78.74
27643;BME280;15053;48.618;10.024;2023-04-28T03:38:41;94037.56;;;10.23;79.37
27643;BME280;15053;48.618;10.024;2023-04-28T03:41:07;94046.81;;;10.29;79.17
27643;BME280;15053;48.618;10.024;2023-04-28T03:43:34;94049.22;;;10.25;79.64
27643;BME280;15053;48.618;10.024;2023-04-28T03:46:25;94056.88;;;10.22;80.03
27643;BME280;15053;48.618;10.024;2023-04-28T03:48:53;94054.53;;;10.20;80.20
27643;BME280;15053;48.618;10.024;2023-04-28T03:51:19;94046.16;;;10.23;80.29
27643;BME280;15053;48.618;10.024;2023-04-28T03:53:46;94050.31;;;10.24;80.47
27643;BME280;15053;48.618;10.024;2023-04-28T03:56:12;94053.09;;;10.28;80.41
27643;BME280;15053;48.618;10.024;2023-04-28T03:58:39;94052.22;;;10.32;79.92
27643;BME280;15053;48.618;10.024;2023-04-28T04:01:06;94049.63;;;10.32;80.17
27643;BME280;15053;48.618;10.024;2023-04-28T04:03:32;94048.38;;;10.30;79.99
27643;BME280;15053;48.618;10.024;2023-04-28T04:05:59;94042.41;;;10.29;80.00
27643;BME280;15053;48.618;10.024;2023-04-28T04:08:26;94044.13;;;10.34;80.27
27643;BME280;15053;48.618;10.024;2023-04-28T04:10:52;94037.41;;;10.33;80.15
27643;BME280;15053;48.618;10.024;2023-04-28T04:13:21;94026.78;;;10.29;80.18
27643;BME280;15053;48.618;10.024;2023-04-28T04:15:48;94031.88;;;10.34;80.15
27643;BME280;15053;48.618;10.024;2023-04-28T04:18:16;94037.88;;;10.35;80.49
27643;BME280;15053;48.618;10.024;2023-04-28T04:21:07;94038.16;;;10.33;80.36
27643;BME280;15053;48.618;10.024;2023-04-28T04:23:34;94035.06;;;10.31;80.52
27643;BME280;15053;48.618;10.024;2023-04-28T04:26:00;94018.41;;;10.32;81.19
27643;BME280;15053;48.618;10.024;2023-04-28T04:28:27;94007.41;;;10.35;81.50
27643;BME280;15053;48.618;10.024;2023-04-28T04:30:53;94008.94;;;10.36;81.41
27643;BME280;15053;48.618;10.024;2023-04-28T04:33:20;94017.72;;;10.40;81.45
27643;BME280;15053;48.618;10.024;2023-04-28T04:35:46;94026.56;;;10.39;81.47
27643;BME280;15053;48.618;10.024;2023-04-28T04:38:13;94020.59;;;10.39;81.35
27643;BME280;15053;48.618;10.024;2023-04-28T04:40:40;94027.34;;;10.40;81.61
27643;BME280;15053;48.618;10.024;2023-04-28T04:43:08;94040.66;;;10.38;81.31
27643;BME280;15053;48.618;10.024;2023-04-28T04:45:41;94040.66;;;10.38;81.65
27643;BME280;15053;48.618;10.024;2023-04-28T04:48:08;94031.09;;;10.34;81.15
27643;BME280;15053;48.618;10.024;2023-04-28T04:50:34;94021.09;;;10.27;81.25
27643;BME280;15053;48.618;10.024;2023-04-28T04:53:01;94023.88;;;10.31;81.38
27643;BME280;15053;48.618;10.024;2023-04-28T04:55:27;94030.63;;;10.32;81.76
27643;BME280;15053;48.618;10.024;2023-04-28T04:57:54;94030.16;;;10.30;81.52
27643;BME280;15053;48.618;10.024;2023-04-28T05:00:44;94029.19;;;10.26;81.75
27643;BME280;15053;48.618;10.024;2023-04-28T05:03:11;94024.28;;;10.24;82.05
27643;BME280;15053;48.618;10.024;2023-04-28T05:05:39;94015.97;;;10.22;82.47
27643;BME280;15053;48.618;10.024;2023-04-28T05:08:24;94021.09;;;10.27;82.65
27643;BME280;15053;48.618;10.024;2023-04-28T05:10:51;94017.91;;;10.30;83.03
27643;BME280;15053;48.618;10.024;2023-04-28T05:13:18;94017.41;;;10.28;83.10
27643;BME280;15053;48.618;10.024;2023-04-28T05:15:53;94010.97;;;10.26;83.27
27643;BME280;15053;48.618;10.024;2023-04-28T05:18:27;94022.06;;;10.31;83.53
27643;BME280;15053;48.618;10.024;2023-04-28T05:20:54;94015.78;;;10.32;83.49
27643;BME280;15053;48.618;10.024;2023-04-28T05:23:21;94017.63;;;10.32;83.99
27643;BME280;15053;48.618;10.024;2023-04-28T05:25:47;94006.16;;;10.33;84.27
27643;BME280;15053;48.618;10.024;2023-04-28T05:28:14;94007.47;;;10.30;84.06
27643;BME280;15053;48.618;10.024;2023-04-28T05:30:42;94004.41;;;10.28;84.43
27643;BME280;15053;48.618;10.024;2023-04-28T05:33:11;94009.13;;;10.26;84.88
27643;BME280;15053;48.618;10.024;2023-04-28T05:35:38;94004.22;;;10.25;84.95
27643;BME280;15053;48.618;10.024;2023-04-28T05:38:04;94012.78;;;10.25;85.05
27643;BME280;15053;48.618;10.024;2023-04-28T05:40:32;94020.03;;;10.28;85.19
27643;BME280;15053;48.618;10.024;2023-04-28T05:42:59;94029.38;;;10.29;84.91
27643;BME280;15053;48.618;10.024;2023-04-28T05:45:26;94024.19;;;10.29;84.99
27643;BME280;15053;48.618;10.024;2023-04-28T05:47:53;94017.03;;;10.35;85.06
27643;BME280;15053;48.618;10.024;2023-04-28T05:50:20;94011.38;;;10.33;84.91
27643;BME280;15053;48.618;10.024;2023-04-28T05:52:48;94019.44;;;10.31;85.02
27643;BME280;15053;48.618;10.024;2023-04-28T05:55:15;94029.28;;;10.34;85.37
27643;BME280;15053;48.618;10.024;2023-04-28T05:57:41;94028.22;;;10.35;85.45
27643;BME280;15053;48.618;10.024;2023-04-28T06:00:18;94025.78;;;10.39;85.61
27643;BME280;15053;48.618;10.024;2023-04-28T06:02:45;94024.56;;;10.36;85.78
27643;BME280;15053;48.618;10.024;2023-04-28T06:05:12;94022.41;;;10.38;85.92
27643;BME280;15053;48.618;10.024;2023-04-28T06:07:39;94021.94;;;10.36;85.71
27643;BME280;15053;48.618;10.024;2023-04-28T06:10:07;94009.41;;;10.25;85.99
27643;BME280;15053;48.618;10.024;2023-04-28T06:12:34;94006.53;;;10.26;86.35
27643;BME280;15053;48.618;10.024;2023-04-28T06:15:02;93999.41;;;10.18;87.23
27643;BME280;15053;48.618;10.024;2023-04-28T06:17:29;94002.78;;;10.19;87.77
27643;BME280;15053;48.618;10.024;2023-04-28T06:19:58;94017.44;;;10.15;88.69
27643;BME280;15053;48.618;10.024;2023-04-28T06:22:25;94027.13;;;10.09;89.04
27643;BME280;15053;48.618;10.024;2023-04-28T06:24:51;94018.38;;;10.05;89.68
27643;BME280;15053;48.618;10.024;2023-04-28T06:27:25;94000.91;;;9.92;90.21
27643;BME280;15053;48.618;10.024;2023-04-28T06:29:51;94008.03;;;10.00;90.75
27643;BME280;15053;48.618;10.024;2023-04-28T06:32:18;94007.75;;;10.01;91.48
27643;BME280;15053;48.618;10.024;2023-04-28T06:34:44;94011.31;;;10.05;91.76
27643;BME280;15053;48.618;10.024;2023-04-28T06:37:11;94002.47;;;10.06;92.33
27643;BME280;15053;48.618;10.024;2023-04-28T06:39:37;93999.56;;;10.08;92.73
27643;BME280;15053;48.618;10.024;2023-04-28T06:42:05;94007.31;;;10.13;92.80
27643;BME280;15053;48.618;10.024;2023-04-28T06:44:34;94004.88;;;10.17;93.28
27643;BME280;15053;48.618;10.024;2023-04-28T06:47:02;94006.91;;;10.20;93.85
27643;BME280;15053;48.618;10.024;2023-04-28T06:49:28;94004.31;;;10.20;94.33
27643;BME280;15053;48.618;10.024;2023-04-28T06:51:58;93999.88;;;10.20;94.20
27643;BME280;15053;48.618;10.024;2023-04-28T06:54:28;93996.50;;;10.20;94.74
27643;BME280;15053;48.618;10.024;2023-04-28T06:56:55;93989.94;;;10.22;95.08
27643;BME280;15053;48.618;10.024;2023-04-28T06:59:23;93980.78;;;10.25;95.38
27643;BME280;15053;48.618;10.024;2023-04-28T07:01:49;93971.03;;;10.30;95.66
27643;BME280;15053;48.618;10.024;2023-04-28T07:04:16;93978.28;;;10.33;95.58
27643;BME280;15053;48.618;10.024;2023-04-28T07:06:43;93972.22;;;10.38;95.87
27643;BME280;15053;48.618;10.024;2023-04-28T07:09:10;93974.50;;;10.39;96.20
27643;BME280;15053;48.618;10.024;2023-04-28T07:11:36;93968.53;;;10.39;96.59
27643;BME280;15053;48.618;10.024;2023-04-28T07:14:03;93973.47;;;10.40;96.85
27643;BME280;15053;48.618;10.024;2023-04-28T07:16:29;93971.31;;;10.42;96.93
27643;BME280;15053;48.618;10.024;2023-04-28T07:18:56;93964.56;;;10.41;97.12
27643;BME280;15053;48.618;10.024;2023-04-28T07:21:22;93965.25;;;10.47;97.70
27643;BME280;15053;48.618;10.024;2023-04-28T07:23:49;93958.19;;;10.47;97.69
27643;BME280;15053;48.618;10.024;2023-04-28T07:26:15;93970.94;;;10.49;98.23
27643;BME280;15053;48.618;10.024;2023-04-28T07:28:43;93969.09;;;10.49;98.73
27643;BME280;15053;48.618;10.024;2023-04-28T07:31:09;93969.88;;;10.50;99.05
27643;BME280;15053;48.618;10.024;2023-04-28T07:33:36;93965.91;;;10.52;99.09
27643;BME280;15053;48.618;10.024;2023-04-28T07:36:03;93956.72;;;10.55;99.34
27643;BME280;15053;48.618;10.024;2023-04-28T07:38:30;93962.59;;;10.60;99.71
27643;BME280;15053;48.618;10.024;2023-04-28T07:40:56;93964.63;;;10.63;99.61
27643;BME280;15053;48.618;10.024;2023-04-28T07:43:23;93959.91;;;10.65;99.82
27643;BME280;15053;48.618;10.024;2023-04-28T07:45:49;93956.69;;;10.68;100.00
27643;BME280;15053;48.618;10.024;2023-04-28T07:48:16;93950.75;;;10.68;99.85
27643;BME280;15053;48.618;10.024;2023-04-28T07:50:42;93956.28;;;10.75;100.00
27643;BME280;15053;48.618;10.024;2023-04-28T07:53:09;93955.41;;;10.80;100.00
27643;BME280;15053;48.618;10.024;2023-04-28T07:55:35;93953.75;;;10.84;100.00
27643;BME280;15053;48.618;10.024;2023-04-28T07:58:02;93948.75;;;10.87;100.00
27643;BME280;15053;48.618;10.024;2023-04-28T08:00:29;93946.28;;;10.91;99.97
27643;BME280;15053;48.618;10.024;2023-04-28T08:02:55;93946.78;;;10.93;100.00
27643;BME280;15053;48.618;10.024;2023-04-28T08:05:23;93946.19;;;10.96;100.00
27643;BME280;15053;48.618;10.024;2023-04-28T08:07:50;93942.38;;;11.02;100.00
27643;BME280;15053;48.618;10.024;2023-04-28T08:10:16;93931.69;;;11.03;100.00
27643;BME280;15053;48.618;10.024;2023-04-28T08:12:43;93937.88;;;11.16;100.00
27643;BME280;15053;48.618;10.024;2023-04-28T08:15:11;93945.91;;;11.19;100.00
27643;BME280;15053;48.618;10.024;2023-04-28T08:17:38;93941.59;;;11.23;100.00
27643;BME280;15053;48.618;10.024;2023-04-28T08:20:05;93928.28;;;11.25;100.00
27643;BME280;15053;48.618;10.024;2023-04-28T08:22:32;93930.78;;;11.30;100.00
27643;BME280;15053;48.618;10.024;2023-04-28T08:24:58;93932.97;;;11.37;100.00
27643;BME280;15053;48.618;10.024;2023-04-28T08:27:25;93927.91;;;11.40;100.00
27643;BME280;15053;48.618;10.024;2023-04-28T08:29:51;93924.69;;;11.43;100.00
27643;BME280;15053;48.618;10.024;2023-04-28T08:32:18;93929.50;;;11.50;100.00
27643;BME280;15053;48.618;10.024;2023-04-28T08:34:44;93929.97;;;11.52;100.00
27643;BME280;15053;48.618;10.024;2023-04-28T08:37:11;93930.59;;;11.57;100.00
27643;BME280;15053;48.618;10.024;2023-04-28T08:39:37;93934.94;;;11.62;100.00
27643;BME280;15053;48.618;10.024;2023-04-28T08:42:04;93934.94;;;11.62;100.00
27643;BME280;15053;48.618;10.024;2023-04-28T08:44:36;93930.94;;;11.64;100.00
27643;BME280;15053;48.618;10.024;2023-04-28T08:47:11;93942.31;;;11.68;100.00
27643;BME280;15053;48.618;10.024;2023-04-28T08:49:39;93946.50;;;11.69;100.00
27643;BME280;15053;48.618;10.024;2023-04-28T08:52:10;93949.88;;;11.70;100.00
27643;BME280;15053;48.618;10.024;2023-04-28T08:54:38;93957.09;;;11.73;100.00
27643;BME280;15053;48.618;10.024;2023-04-28T08:57:09;93976.13;;;11.73;100.00
27643;BME280;15053;48.618;10.024;2023-04-28T08:59:38;93963.66;;;11.70;100.00
27643;BME280;15053;48.618;10.024;2023-04-28T09:02:06;93963.19;;;11.68;100.00
27643;BME280;15053;48.618;10.024;2023-04-28T09:04:33;93965.00;;;11.68;100.00
27643;BME280;15053;48.618;10.024;2023-04-28T09:07:00;93970.75;;;11.70;100.00
27643;BME280;15053;48.618;10.024;2023-04-28T09:09:28;93973.03;;;11.71;100.00
27643;BME280;15053;48.618;10.024;2023-04-28T09:11:59;93970.63;;;11.75;100.00
27643;BME280;15053;48.618;10.024;2023-04-28T09:14:27;93965.84;;;11.77;100.00
27643;BME280;15053;48.618;10.024;2023-04-28T09:16:54;93966.03;;;11.80;100.00
27643;BME280;15053;48.618;10.024;2023-04-28T09:19:21;93972.19;;;11.84;100.00
27643;BME280;15053;48.618;10.024;2023-04-28T09:21:55;93977.56;;;11.88;100.00
27643;BME280;15053;48.618;10.024;2023-04-28T09:27:00;93980.22;;;11.97;100.00
27643;BME280;15053;48.618;10.024;2023-04-28T09:29:28;93982.22;;;12.00;100.00
27643;BME280;15053;48.618;10.024;2023-04-28T09:32:20;93980.84;;;12.02;100.00
27643;BME280;15053;48.618;10.024;2023-04-28T09:34:49;93981.50;;;12.08;100.00
27643;BME280;15053;48.618;10.024;2023-04-28T09:37:18;93979.50;;;12.13;100.00
27643;BME280;15053;48.618;10.024;2023-04-28T09:39:46;93981.22;;;12.18;100.00
27643;BME280;15053;48.618;10.024;2023-04-28T09:42:30;93989.66;;;12.23;100.00
27643;BME280;15053;48.618;10.024;2023-04-28T09:45:01;93998.75;;;12.26;100.00
27643;BME280;15053;48.618;10.024;2023-04-28T09:47:29;93997.97;;;12.25;100.00
27643;BME280;15053;48.618;10.024;2023-04-28T09:49:59;93988.91;;;12.31;100.00
27643;BME280;15053;48.618;10.024;2023-04-28T09:52:26;93986.94;;;12.37;100.00
27643;BME280;15053;48.618;10.024;2023-04-28T09:54:54;93984.50;;;12.40;100.00
27643;BME280;15053;48.618;10.024;2023-04-28T09:57:22;93980.06;;;12.41;100.00
27643;BME280;15053;48.618;10.024;2023-04-28T09:59:51;93978.69;;;12.52;100.00
27643;BME280;15053;48.618;10.024;2023-04-28T10:02:19;93983.59;;;12.54;100.00
27643;BME280;15053;48.618;10.024;2023-04-28T10:05:07;93985.28;;;12.58;100.00
27643;BME280;15053;48.618;10.024;2023-04-28T10:07:35;93988.22;;;12.65;100.00
27643;BME280;15053;48.618;10.024;2023-04-28T10:10:04;93981.47;;;12.73;100.00
27643;BME280;15053;48.618;10.024;2023-04-28T10:12:32;93981.47;;;12.81;100.00
27643;BME280;15053;48.618;10.024;2023-04-28T10:14:58;93976.44;;;12.93;100.00
27643;BME280;15053;48.618;10.024;2023-04-28T10:17:25;93982.41;;;13.02;100.00
27643;BME280;15053;48.618;10.024;2023-04-28T10:19:54;93978.41;;;13.05;100.00
27643;BME280;15053;48.618;10.024;2023-04-28T10:22:45;93987.50;;;13.08;100.00
27643;BME280;15053;48.618;10.024;2023-04-28T10:25:25;93989.03;;;13.09;100.00
27643;BME280;15053;48.618;10.024;2023-04-28T10:27:52;93988.75;;;13.10;100.00
27643;BME280;15053;48.618;10.024;2023-04-28T10:30:21;93989.66;;;13.14;100.00
27643;BME280;15053;48.618;10.024;2023-04-28T10:35:41;93988.28;;;13.25;100.00
27643;BME280;15053;48.618;10.024;2023-04-28T10:38:18;93982.59;;;13.32;100.00
27643;BME280;15053;48.618;10.024;2023-04-28T10:56:37;93969.88;;;13.68;99.31
27643;BME280;15053;48.618;10.024;2023-04-28T10:59:24;93966.81;;;13.66;99.74
27643;BME280;15053;48.618;10.024;2023-04-28T11:01:51;93964.34;;;13.61;99.39
27643;BME280;15053;48.618;10.024;2023-04-28T11:04:18;93973.44;;;13.55;99.65
27643;BME280;15053;48.618;10.024;2023-04-28T11:06:46;93962.69;;;13.56;99.83
27643;BME280;15053;48.618;10.024;2023-04-28T11:14:33;93970.88;;;13.93;100.00
27643;BME280;15053;48.618;10.024;2023-04-28T11:17:07;93970.97;;;14.05;100.00
27643;BME280;15053;48.618;10.024;2023-04-28T11:19:39;93968.78;;;14.15;100.00
27643;BME280;15053;48.618;10.024;2023-04-28T11:22:12;93971.81;;;14.26;100.00
27643;BME280;15053;48.618;10.024;2023-04-28T11:24:39;93965.16;;;14.37;100.00
27643;BME280;15053;48.618;10.024;2023-04-28T11:27:06;93974.31;;;14.52;100.00
27643;BME280;15053;48.618;10.024;2023-04-28T11:32:02;93970.69;;;14.65;100.00
27643;BME280;15053;48.618;10.024;2023-04-28T11:34:29;93973.88;;;14.70;100.00
27643;BME280;15053;48.618;10.024;2023-04-28T11:36:55;93983.50;;;14.66;99.61
27643;BME280;15053;48.618;10.024;2023-04-28T11:39:32;93983.97;;;14.60;99.24
27643;BME280;15053;48.618;10.024;2023-04-28T11:42:01;93981.56;;;14.55;98.89
27643;BME280;15053;48.618;10.024;2023-04-28T11:44:30;93996.50;;;14.54;98.52
27643;BME280;15053;48.618;10.024;2023-04-28T11:46:59;93980.00;;;14.54;97.55
27643;BME280;15053;48.618;10.024;2023-04-28T11:49:29;93981.38;;;14.60;97.97
27643;BME280;15053;48.618;10.024;2023-04-28T11:51:57;93986.84;;;14.67;96.98
27643;BME280;15053;48.618;10.024;2023-04-28T11:54:28;93984.97;;;14.76;96.86
27643;BME280;15053;48.618;10.024;2023-04-28T11:56:55;93978.19;;;14.96;96.69
27643;BME280;15053;48.618;10.024;2023-04-28T11:59:24;93979.78;;;15.29;95.61
27643;BME280;15053;48.618;10.024;2023-04-28T12:01:54;93976.97;;;15.67;95.50
27643;BME280;15053;48.618;10.024;2023-04-28T12:07:12;93993.78;;;16.11;91.57
27643;BME280;15053;48.618;10.024;2023-04-28T12:09:41;93973.09;;;15.98;90.58
27643;BME280;15053;48.618;10.024;2023-04-28T12:12:13;93991.34;;;15.94;90.15
27643;BME280;15053;48.618;10.024;2023-04-28T12:14:53;93981.59;;;15.82;90.07
27643;BME280;15053;48.618;10.024;2023-04-28T12:17:37;94003.38;;;15.83;90.55
27643;BME280;15053;48.618;10.024;2023-04-28T12:20:06;93989.38;;;15.79;90.22
27643;BME280;15053;48.618;10.024;2023-04-28T12:25:11;93981.13;;;15.68;89.92
27643;BME280;15053;48.618;10.024;2023-04-28T12:27:38;93985.06;;;15.74;90.35
27643;BME280;15053;48.618;10.024;2023-04-28T12:32:45;93996.03;;;15.76;90.94
27643;BME280;15053;48.618;10.024;2023-04-28T12:35:11;93994.13;;;15.65;90.33
27643;BME280;15053;48.618;10.024;2023-04-28T12:37:38;93990.81;;;15.56;90.67
27643;BME280;15053;48.618;10.024;2023-04-28T12:40:05;93985.34;;;15.49;91.36
27643;BME280;15053;48.618;10.024;2023-04-28T12:42:33;94000.63;;;15.47;91.70
27643;BME280;15053;48.618;10.024;2023-04-28T12:44:59;93986.16;;;15.41;92.04
27643;BME280;15053;48.618;10.024;2023-04-28T12:47:26;93988.13;;;15.44;92.61
27643;BME280;15053;48.618;10.024;2023-04-28T12:49:53;93987.19;;;15.48;92.90
27643;BME280;15053;48.618;10.024;2023-04-28T12:52:19;93988.84;;;15.53;93.00
27643;BME280;15053;48.618;10.024;2023-04-28T12:54:47;93988.19;;;15.56;93.00
27643;BME280;15053;48.618;10.024;2023-04-28T12:57:17;93979.81;;;15.62;93.26
27643;BME280;15053;48.618;10.024;2023-04-28T12:59:45;93999.63;;;15.72;93.46
27643;BME280;15053;48.618;10.024;2023-04-28T13:02:13;93991.88;;;15.75;92.82
27643;BME280;15053;48.618;10.024;2023-04-28T13:04:40;93982.13;;;15.88;92.22
27643;BME280;15053;48.618;10.024;2023-04-28T13:07:08;93982.81;;;15.97;91.94
27643;BME280;15053;48.618;10.024;2023-04-28T13:09:37;93984.69;;;15.97;91.68
27643;BME280;15053;48.618;10.024;2023-04-28T13:12:04;93985.00;;;15.95;90.86
27643;BME280;15053;48.618;10.024;2023-04-28T13:14:31;93983.03;;;15.92;90.90
27643;BME280;15053;48.618;10.024;2023-04-28T13:16:58;93987.09;;;15.89;91.37
27643;BME280;15053;48.618;10.024;2023-04-28T13:19:24;93992.22;;;15.86;91.38
27643;BME280;15053;48.618;10.024;2023-04-28T13:21:52;93986.75;;;15.79;91.37
27643;BME280;15053;48.618;10.024;2023-04-28T13:24:19;93991.44;;;15.73;91.58
27643;BME280;15053;48.618;10.024;2023-04-28T13:26:46;93984.19;;;15.70;91.62
27643;BME280;15053;48.618;10.024;2023-04-28T13:29:12;93982.34;;;15.71;92.00
27643;BME280;15053;48.618;10.024;2023-04-28T13:31:40;93984.50;;;15.69;92.10